sensor_id;sensor_type;location;lat;lon;timestamp;P1;durP1;ratioP1;P2;durP2;ratioP2
77602;SDS011;66771;52.434;17.056;2023-04-01T00:01:29;8.90;;;6.10;;
77602;SDS011;66771;52.434;17.056;2023-04-01T00:03:56;10.10;;;7.10;;
77602;SDS011;66771;52.434;17.056;2023-04-01T00:06:23;7.10;;;5.50;;
77602;SDS011;66771;52.434;17.056;2023-04-01T00:08:50;7.20;;;6.20;;
77602;SDS011;66771;52.434;17.056;2023-04-01T00:11:17;7.50;;;5.80;;
77602;SDS011;66771;52.434;17.056;2023-04-01T00:13:44;9.20;;;6.30;;
77602;SDS011;66771;52.434;17.056;2023-04-01T00:16:12;8.00;;;5.90;;
77602;SDS011;66771;52.434;17.056;2023-04-01T00:18:39;9.30;;;6.20;;
77602;SDS011;66771;52.434;17.056;2023-04-01T00:21:06;7.50;;;6.70;;
77602;SDS011;66771;52.434;17.056;2023-04-01T00:23:34;9.90;;;7.20;;
77602;SDS011;66771;52.434;17.056;2023-04-01T00:26:02;10.40;;;6.60;;
77602;SDS011;66771;52.434;17.056;2023-04-01T00:28:29;8.60;;;7.00;;
77602;SDS011;66771;52.434;17.056;2023-04-01T00:30:56;7.50;;;6.70;;
77602;SDS011;66771;52.434;17.056;2023-04-01T00:33:23;9.00;;;7.20;;
77602;SDS011;66771;52.434;17.056;2023-04-01T00:35:51;8.30;;;6.90;;
77602;SDS011;66771;52.434;17.056;2023-04-01T00:38:17;8.30;;;7.20;;
77602;SDS011;66771;52.434;17.056;2023-04-01T00:40:46;9.20;;;6.80;;
77602;SDS011;66771;52.434;17.056;2023-04-01T00:43:14;7.50;;;6.70;;
77602;SDS011;66771;52.434;17.056;2023-04-01T00:45:48;10.20;;;6.70;;
77602;SDS011;66771;52.434;17.056;2023-04-01T00:48:34;11.10;;;8.30;;
77602;SDS011;66771;52.434;17.056;2023-04-01T00:51:06;10.40;;;7.40;;
77602;SDS011;66771;52.434;17.056;2023-04-01T00:53:37;10.80;;;7.10;;
77602;SDS011;66771;52.434;17.056;2023-04-01T00:56:11;9.20;;;7.20;;
77602;SDS011;66771;52.434;17.056;2023-04-01T00:58:42;8.80;;;7.20;;
77602;SDS011;66771;52.434;17.056;2023-04-01T01:01:13;7.50;;;6.70;;
77602;SDS011;66771;52.434;17.056;2023-04-01T01:03:41;8.20;;;7.30;;
77602;SDS011;66771;52.434;17.056;2023-04-01T01:07:12;8.30;;;7.30;;
77602;SDS011;66771;52.434;17.056;2023-04-01T01:09:17;7.60;;;6.70;;
77602;SDS011;66771;52.434;17.056;2023-04-01T01:29:23;7.60;;;6.70;;
77602;SDS011;66771;52.434;17.056;2023-04-01T01:37:50;10.10;;;6.10;;
77602;SDS011;66771;52.434;17.056;2023-04-01T01:40:22;6.20;;;5.40;;
77602;SDS011;66771;52.434;17.056;2023-04-01T01:42:54;7.30;;;5.80;;
77602;SDS011;66771;52.434;17.056;2023-04-01T01:45:25;8.90;;;6.00;;
77602;SDS011;66771;52.434;17.056;2023-04-01T01:47:54;8.40;;;6.50;;
77602;SDS011;66771;52.434;17.056;2023-04-01T01:50:24;6.40;;;5.80;;
77602;SDS011;66771;52.434;17.056;2023-04-01T01:53:06;7.00;;;6.30;;
77602;SDS011;66771;52.434;17.056;2023-04-01T01:55:37;6.80;;;6.10;;
77602;SDS011;66771;52.434;17.056;2023-04-01T01:58:14;8.60;;;6.90;;
77602;SDS011;66771;52.434;17.056;2023-04-01T02:00:48;9.70;;;6.90;;
77602;SDS011;66771;52.434;17.056;2023-04-01T02:03:20;8.90;;;6.60;;
77602;SDS011;66771;52.434;17.056;2023-04-01T02:05:52;9.90;;;7.30;;
77602;SDS011;66771;52.434;17.056;2023-04-01T02:08:25;11.60;;;7.80;;
77602;SDS011;66771;52.434;17.056;2023-04-01T02:11:06;7.50;;;6.60;;
77602;SDS011;66771;52.434;17.056;2023-04-01T02:16:22;7.30;;;6.60;;
77602;SDS011;66771;52.434;17.056;2023-04-01T02:18:56;7.00;;;6.30;;
77602;SDS011;66771;52.434;17.056;2023-04-01T02:21:27;8.00;;;6.70;;
77602;SDS011;66771;52.434;17.056;2023-04-01T02:23:58;7.10;;;6.30;;
77602;SDS011;66771;52.434;17.056;2023-04-01T02:26:27;7.30;;;6.50;;
77602;SDS011;66771;52.434;17.056;2023-04-01T02:28:54;6.60;;;6.00;;
77602;SDS011;66771;52.434;17.056;2023-04-01T02:31:23;8.20;;;6.20;;
77602;SDS011;66771;52.434;17.056;2023-04-01T02:33:52;7.30;;;6.20;;
77602;SDS011;66771;52.434;17.056;2023-04-01T02:36:19;7.20;;;6.30;;
77602;SDS011;66771;52.434;17.056;2023-04-01T02:38:47;6.60;;;5.90;;
77602;SDS011;66771;52.434;17.056;2023-04-01T02:41:15;7.50;;;6.70;;
77602;SDS011;66771;52.434;17.056;2023-04-01T02:43:42;8.60;;;6.50;;
77602;SDS011;66771;52.434;17.056;2023-04-01T02:46:09;8.90;;;6.10;;
77602;SDS011;66771;52.434;17.056;2023-04-01T02:48:36;7.00;;;5.90;;
77602;SDS011;66771;52.434;17.056;2023-04-01T02:51:03;8.10;;;6.10;;
77602;SDS011;66771;52.434;17.056;2023-04-01T02:53:30;6.70;;;6.00;;
77602;SDS011;66771;52.434;17.056;2023-04-01T02:55:57;6.90;;;6.20;;
77602;SDS011;66771;52.434;17.056;2023-04-01T02:58:24;7.00;;;6.00;;
77602;SDS011;66771;52.434;17.056;2023-04-01T03:00:51;8.10;;;6.90;;
77602;SDS011;66771;52.434;17.056;2023-04-01T03:03:18;7.70;;;7.00;;
77602;SDS011;66771;52.434;17.056;2023-04-01T03:05:45;9.00;;;7.30;;
77602;SDS011;66771;52.434;17.056;2023-04-01T03:08:12;9.60;;;7.30;;
77602;SDS011;66771;52.434;17.056;2023-04-01T03:10:39;8.70;;;7.80;;
77602;SDS011;66771;52.434;17.056;2023-04-01T03:13:08;7.90;;;7.10;;
77602;SDS011;66771;52.434;17.056;2023-04-01T03:15:35;8.20;;;6.90;;
77602;SDS011;66771;52.434;17.056;2023-04-01T03:18:02;6.70;;;6.10;;
77602;SDS011;66771;52.434;17.056;2023-04-01T03:20:30;8.60;;;7.10;;
77602;SDS011;66771;52.434;17.056;2023-04-01T03:22:57;7.40;;;6.10;;
77602;SDS011;66771;52.434;17.056;2023-04-01T03:25:24;8.40;;;6.70;;
77602;SDS011;66771;52.434;17.056;2023-04-01T03:27:51;7.60;;;6.70;;
77602;SDS011;66771;52.434;17.056;2023-04-01T03:30:18;8.30;;;6.70;;
77602;SDS011;66771;52.434;17.056;2023-04-01T03:32:48;7.30;;;6.40;;
77602;SDS011;66771;52.434;17.056;2023-04-01T03:35:15;7.50;;;6.60;;
77602;SDS011;66771;52.434;17.056;2023-04-01T03:37:42;7.60;;;6.70;;
77602;SDS011;66771;52.434;17.056;2023-04-01T03:40:09;9.50;;;7.20;;
77602;SDS011;66771;52.434;17.056;2023-04-01T03:42:37;7.40;;;6.30;;
77602;SDS011;66771;52.434;17.056;2023-04-01T03:45:04;8.90;;;7.20;;
77602;SDS011;66771;52.434;17.056;2023-04-01T03:47:31;10.10;;;7.10;;
77602;SDS011;66771;52.434;17.056;2023-04-01T03:49:58;10.90;;;8.30;;
77602;SDS011;66771;52.434;17.056;2023-04-01T03:52:25;8.60;;;7.20;;
77602;SDS011;66771;52.434;17.056;2023-04-01T03:54:52;12.00;;;7.70;;
77602;SDS011;66771;52.434;17.056;2023-04-01T03:57:19;9.60;;;8.50;;
77602;SDS011;66771;52.434;17.056;2023-04-01T03:59:46;9.00;;;8.10;;
77602;SDS011;66771;52.434;17.056;2023-04-01T04:02:13;8.80;;;7.90;;
77602;SDS011;66771;52.434;17.056;2023-04-01T04:04:41;9.70;;;8.30;;
77602;SDS011;66771;52.434;17.056;2023-04-01T04:07:09;8.40;;;7.60;;
77602;SDS011;66771;52.434;17.056;2023-04-01T04:09:56;10.50;;;9.20;;
77602;SDS011;66771;52.434;17.056;2023-04-01T04:12:22;12.00;;;9.20;;
77602;SDS011;66771;52.434;17.056;2023-04-01T04:14:49;11.20;;;8.50;;
77602;SDS011;66771;52.434;17.056;2023-04-01T04:17:16;11.40;;;8.10;;
77602;SDS011;66771;52.434;17.056;2023-04-01T04:19:43;9.10;;;7.90;;
77602;SDS011;66771;52.434;17.056;2023-04-01T04:22:11;9.30;;;8.30;;
77602;SDS011;66771;52.434;17.056;2023-04-01T04:24:38;10.50;;;8.70;;
77602;SDS011;66771;52.434;17.056;2023-04-01T04:27:11;8.80;;;7.90;;
77602;SDS011;66771;52.434;17.056;2023-04-01T04:29:45;8.50;;;7.60;;
77602;SDS011;66771;52.434;17.056;2023-04-01T04:32:12;10.50;;;8.10;;
77602;SDS011;66771;52.434;17.056;2023-04-01T04:34:39;8.50;;;7.20;;
77602;SDS011;66771;52.434;17.056;2023-04-01T04:37:06;8.70;;;7.40;;
77602;SDS011;66771;52.434;17.056;2023-04-01T04:39:35;10.10;;;7.50;;
77602;SDS011;66771;52.434;17.056;2023-04-01T04:42:02;9.40;;;7.70;;
77602;SDS011;66771;52.434;17.056;2023-04-01T04:44:30;8.60;;;6.90;;
77602;SDS011;66771;52.434;17.056;2023-04-01T04:46:57;9.10;;;7.00;;
77602;SDS011;66771;52.434;17.056;2023-04-01T04:49:24;7.90;;;7.10;;
77602;SDS011;66771;52.434;17.056;2023-04-01T04:51:51;8.30;;;7.40;;
77602;SDS011;66771;52.434;17.056;2023-04-01T04:54:20;8.50;;;7.70;;
77602;SDS011;66771;52.434;17.056;2023-04-01T04:56:55;9.00;;;7.20;;
77602;SDS011;66771;52.434;17.056;2023-04-01T04:59:23;9.90;;;8.10;;
77602;SDS011;66771;52.434;17.056;2023-04-01T05:02:04;8.80;;;7.20;;
77602;SDS011;66771;52.434;17.056;2023-04-01T05:04:36;8.70;;;7.40;;
77602;SDS011;66771;52.434;17.056;2023-04-01T05:07:04;7.80;;;7.00;;
77602;SDS011;66771;52.434;17.056;2023-04-01T05:09:32;7.60;;;6.80;;
77602;SDS011;66771;52.434;17.056;2023-04-01T05:12:00;8.60;;;7.40;;
77602;SDS011;66771;52.434;17.056;2023-04-01T05:14:32;8.80;;;6.70;;
77602;SDS011;66771;52.434;17.056;2023-04-01T05:17:10;8.50;;;6.90;;
77602;SDS011;66771;52.434;17.056;2023-04-01T05:19:39;10.10;;;7.70;;
77602;SDS011;66771;52.434;17.056;2023-04-01T05:22:06;9.10;;;8.00;;
77602;SDS011;66771;52.434;17.056;2023-04-01T05:24:38;7.60;;;6.80;;
77602;SDS011;66771;52.434;17.056;2023-04-01T05:27:05;8.80;;;7.90;;
77602;SDS011;66771;52.434;17.056;2023-04-01T05:29:34;9.00;;;7.90;;
77602;SDS011;66771;52.434;17.056;2023-04-01T05:32:04;11.20;;;9.20;;
77602;SDS011;66771;52.434;17.056;2023-04-01T05:34:34;10.20;;;9.10;;
77602;SDS011;66771;52.434;17.056;2023-04-01T05:37:07;9.40;;;8.10;;
77602;SDS011;66771;52.434;17.056;2023-04-01T05:39:37;10.00;;;8.90;;
77602;SDS011;66771;52.434;17.056;2023-04-01T05:42:05;10.70;;;8.30;;
77602;SDS011;66771;52.434;17.056;2023-04-01T05:44:34;11.00;;;8.70;;
77602;SDS011;66771;52.434;17.056;2023-04-01T05:47:02;12.50;;;9.40;;
77602;SDS011;66771;52.434;17.056;2023-04-01T05:49:30;10.00;;;9.00;;
77602;SDS011;66771;52.434;17.056;2023-04-01T05:51:58;12.10;;;9.40;;
77602;SDS011;66771;52.434;17.056;2023-04-01T05:54:26;10.20;;;9.10;;
77602;SDS011;66771;52.434;17.056;2023-04-01T05:56:53;10.00;;;8.70;;
77602;SDS011;66771;52.434;17.056;2023-04-01T05:59:20;8.60;;;7.70;;
77602;SDS011;66771;52.434;17.056;2023-04-01T06:01:47;10.20;;;8.60;;
77602;SDS011;66771;52.434;17.056;2023-04-01T06:04:16;9.20;;;7.70;;
77602;SDS011;66771;52.434;17.056;2023-04-01T06:06:45;9.00;;;8.10;;
77602;SDS011;66771;52.434;17.056;2023-04-01T06:46:12;10.00;;;7.10;;
77602;SDS011;66771;52.434;17.056;2023-04-01T06:59:15;7.30;;;6.60;;
77602;SDS011;66771;52.434;17.056;2023-04-01T07:02:32;7.10;;;6.40;;
77602;SDS011;66771;52.434;17.056;2023-04-01T07:04:40;5.80;;;5.20;;
77602;SDS011;66771;52.434;17.056;2023-04-01T07:10:20;5.60;;;5.00;;
77602;SDS011;66771;52.434;17.056;2023-04-01T07:16:15;6.30;;;5.70;;
77602;SDS011;66771;52.434;17.056;2023-04-01T07:21:46;5.90;;;5.00;;
77602;SDS011;66771;52.434;17.056;2023-04-01T07:24:43;6.60;;;4.70;;
77602;SDS011;66771;52.434;17.056;2023-04-01T07:27:12;6.00;;;4.60;;
77602;SDS011;66771;52.434;17.056;2023-04-01T07:29:44;8.90;;;5.20;;
77602;SDS011;66771;52.434;17.056;2023-04-01T07:35:28;6.50;;;5.40;;
77602;SDS011;66771;52.434;17.056;2023-04-01T07:38:38;7.80;;;5.60;;
77602;SDS011;66771;52.434;17.056;2023-04-01T07:52:30;5.30;;;4.70;;
77602;SDS011;66771;52.434;17.056;2023-04-01T07:55:20;6.10;;;5.50;;
77602;SDS011;66771;52.434;17.056;2023-04-01T07:58:06;5.80;;;5.20;;
77602;SDS011;66771;52.434;17.056;2023-04-01T08:05:53;5.50;;;4.90;;
77602;SDS011;66771;52.434;17.056;2023-04-01T08:18:18;5.10;;;4.60;;
77602;SDS011;66771;52.434;17.056;2023-04-01T08:21:02;5.40;;;4.80;;
77602;SDS011;66771;52.434;17.056;2023-04-01T08:23:33;7.40;;;5.30;;
77602;SDS011;66771;52.434;17.056;2023-04-01T08:29:03;6.80;;;6.10;;
77602;SDS011;66771;52.434;17.056;2023-04-01T08:31:37;7.60;;;5.80;;
77602;SDS011;66771;52.434;17.056;2023-04-01T08:34:17;8.20;;;6.60;;
77602;SDS011;66771;52.434;17.056;2023-04-01T08:36:50;10.70;;;7.90;;
77602;SDS011;66771;52.434;17.056;2023-04-01T08:39:24;11.80;;;9.70;;
77602;SDS011;66771;52.434;17.056;2023-04-01T08:51:16;12.40;;;9.40;;
77602;SDS011;66771;52.434;17.056;2023-04-01T08:54:16;14.20;;;10.60;;
77602;SDS011;66771;52.434;17.056;2023-04-01T08:57:21;13.20;;;9.60;;
77602;SDS011;66771;52.434;17.056;2023-04-01T09:00:20;12.30;;;9.70;;
77602;SDS011;66771;52.434;17.056;2023-04-01T09:23:24;12.80;;;9.70;;
77602;SDS011;66771;52.434;17.056;2023-04-01T09:37:20;15.40;;;10.80;;
77602;SDS011;66771;52.434;17.056;2023-04-01T09:45:44;18.80;;;11.60;;
77602;SDS011;66771;52.434;17.056;2023-04-01T09:51:23;16.40;;;11.00;;
77602;SDS011;66771;52.434;17.056;2023-04-01T10:05:58;20.50;;;13.70;;
77602;SDS011;66771;52.434;17.056;2023-04-01T10:24:53;22.90;;;15.00;;
77602;SDS011;66771;52.434;17.056;2023-04-01T10:36:57;25.00;;;16.20;;
77602;SDS011;66771;52.434;17.056;2023-04-01T10:55:04;29.50;;;18.80;;
77602;SDS011;66771;52.434;17.056;2023-04-01T11:25:34;32.50;;;20.60;;
77602;SDS011;66771;52.434;17.056;2023-04-01T11:28:15;27.80;;;18.90;;
77602;SDS011;66771;52.434;17.056;2023-04-01T11:37:27;34.70;;;22.00;;
77602;SDS011;66771;52.434;17.056;2023-04-01T11:44:18;18.60;;;13.80;;
77602;SDS011;66771;52.434;17.056;2023-04-01T11:50:03;18.90;;;14.30;;
77602;SDS011;66771;52.434;17.056;2023-04-01T11:55:55;21.20;;;13.70;;
77602;SDS011;66771;52.434;17.056;2023-04-01T12:09:47;17.20;;;12.10;;
77602;SDS011;66771;52.434;17.056;2023-04-01T12:18:03;13.20;;;9.30;;
77602;SDS011;66771;52.434;17.056;2023-04-01T12:20:50;15.60;;;10.30;;
77602;SDS011;66771;52.434;17.056;2023-04-01T12:29:21;15.80;;;10.30;;
77602;SDS011;66771;52.434;17.056;2023-04-01T12:34:49;14.60;;;10.40;;
77602;SDS011;66771;52.434;17.056;2023-04-01T12:37:35;13.90;;;10.60;;
77602;SDS011;66771;52.434;17.056;2023-04-01T12:53:38;12.70;;;9.70;;
77602;SDS011;66771;52.434;17.056;2023-04-01T12:56:09;12.00;;;9.20;;
77602;SDS011;66771;52.434;17.056;2023-04-01T13:13:11;8.90;;;7.30;;
77602;SDS011;66771;52.434;17.056;2023-04-01T13:21:32;10.30;;;7.90;;
77602;SDS011;66771;52.434;17.056;2023-04-01T13:32:03;9.10;;;6.10;;
77602;SDS011;66771;52.434;17.056;2023-04-01T13:42:24;8.80;;;6.30;;
77602;SDS011;66771;52.434;17.056;2023-04-01T14:07:56;7.40;;;6.50;;
77602;SDS011;66771;52.434;17.056;2023-04-01T14:10:53;7.60;;;6.60;;
77602;SDS011;66771;52.434;17.056;2023-04-01T14:33:20;7.20;;;5.50;;
77602;SDS011;66771;52.434;17.056;2023-04-01T14:47:09;6.90;;;6.00;;
77602;SDS011;66771;52.434;17.056;2023-04-01T14:50:05;7.60;;;6.00;;
77602;SDS011;66771;52.434;17.056;2023-04-01T14:52:36;7.10;;;6.10;;
77602;SDS011;66771;52.434;17.056;2023-04-01T14:55:18;7.10;;;6.00;;
77602;SDS011;66771;52.434;17.056;2023-04-01T14:58:07;8.50;;;5.60;;
77602;SDS011;66771;52.434;17.056;2023-04-01T15:09:17;8.60;;;6.00;;
77602;SDS011;66771;52.434;17.056;2023-04-01T15:17:55;6.80;;;5.40;;
77602;SDS011;66771;52.434;17.056;2023-04-01T15:20:38;8.10;;;5.70;;
77602;SDS011;66771;52.434;17.056;2023-04-01T15:23:22;6.40;;;5.80;;
77602;SDS011;66771;52.434;17.056;2023-04-01T15:26:19;6.80;;;5.80;;
77602;SDS011;66771;52.434;17.056;2023-04-01T15:31:15;6.30;;;5.60;;
77602;SDS011;66771;52.434;17.056;2023-04-01T15:34:04;5.90;;;5.10;;
77602;SDS011;66771;52.434;17.056;2023-04-01T15:48:19;5.70;;;5.20;;
77602;SDS011;66771;52.434;17.056;2023-04-01T16:02:18;5.60;;;5.00;;
77602;SDS011;66771;52.434;17.056;2023-04-01T16:04:50;6.20;;;5.40;;
77602;SDS011;66771;52.434;17.056;2023-04-01T16:07:37;5.30;;;4.60;;
77602;SDS011;66771;52.434;17.056;2023-04-01T16:26:13;5.60;;;4.80;;
77602;SDS011;66771;52.434;17.056;2023-04-01T16:28:53;6.90;;;5.50;;
77602;SDS011;66771;52.434;17.056;2023-04-01T16:34:34;5.70;;;4.70;;
77602;SDS011;66771;52.434;17.056;2023-04-01T16:37:10;8.40;;;5.90;;
77602;SDS011;66771;52.434;17.056;2023-04-01T16:45:51;8.70;;;6.80;;
77602;SDS011;66771;52.434;17.056;2023-04-01T16:51:20;10.60;;;8.10;;
77602;SDS011;66771;52.434;17.056;2023-04-01T16:53:50;7.60;;;6.20;;
77602;SDS011;66771;52.434;17.056;2023-04-01T16:56:36;7.20;;;6.20;;
77602;SDS011;66771;52.434;17.056;2023-04-01T17:01:44;18.10;;;12.30;;
77602;SDS011;66771;52.434;17.056;2023-04-01T17:04:30;16.40;;;10.10;;
77602;SDS011;66771;52.434;17.056;2023-04-01T17:07:21;24.20;;;15.20;;
77602;SDS011;66771;52.434;17.056;2023-04-01T17:12:46;10.10;;;8.30;;
77602;SDS011;66771;52.434;17.056;2023-04-01T17:15:39;13.00;;;9.20;;
77602;SDS011;66771;52.434;17.056;2023-04-01T17:20:57;9.60;;;8.50;;
77602;SDS011;66771;52.434;17.056;2023-04-01T17:28:46;8.70;;;7.30;;
77602;SDS011;66771;52.434;17.056;2023-04-01T17:53:35;9.30;;;6.30;;
77602;SDS011;66771;52.434;17.056;2023-04-01T17:56:14;7.80;;;5.90;;
77602;SDS011;66771;52.434;17.056;2023-04-01T18:01:46;8.10;;;6.30;;
77602;SDS011;66771;52.434;17.056;2023-04-01T18:13:42;7.70;;;6.20;;
77602;SDS011;66771;52.434;17.056;2023-04-01T18:16:34;8.10;;;6.00;;
77602;SDS011;66771;52.434;17.056;2023-04-01T18:21:52;6.40;;;5.30;;
77602;SDS011;66771;52.434;17.056;2023-04-01T18:27:36;7.20;;;5.90;;
77602;SDS011;66771;52.434;17.056;2023-04-01T18:29:51;7.80;;;5.60;;
77602;SDS011;66771;52.434;17.056;2023-04-01T18:35:16;7.90;;;5.70;;
77602;SDS011;66771;52.434;17.056;2023-04-01T18:56:48;7.00;;;5.30;;
77602;SDS011;66771;52.434;17.056;2023-04-01T18:59:23;6.20;;;5.20;;
77602;SDS011;66771;52.434;17.056;2023-04-01T19:04:50;6.30;;;5.40;;
77602;SDS011;66771;52.434;17.056;2023-04-01T19:11:05;6.80;;;4.50;;
77602;SDS011;66771;52.434;17.056;2023-04-01T19:22:18;5.20;;;4.70;;
77602;SDS011;66771;52.434;17.056;2023-04-01T19:27:41;8.00;;;5.40;;
77602;SDS011;66771;52.434;17.056;2023-04-01T19:36:00;8.50;;;6.10;;
77602;SDS011;66771;52.434;17.056;2023-04-01T19:38:38;7.20;;;5.70;;
77602;SDS011;66771;52.434;17.056;2023-04-01T19:46:47;6.90;;;6.10;;
77602;SDS011;66771;52.434;17.056;2023-04-01T19:49:26;11.10;;;6.40;;
77602;SDS011;66771;52.434;17.056;2023-04-01T20:00:25;8.70;;;6.50;;
77602;SDS011;66771;52.434;17.056;2023-04-01T20:02:55;7.70;;;6.20;;
77602;SDS011;66771;52.434;17.056;2023-04-01T20:13:52;8.00;;;6.10;;
77602;SDS011;66771;52.434;17.056;2023-04-01T20:16:48;6.50;;;5.40;;
77602;SDS011;66771;52.434;17.056;2023-04-01T20:22:22;7.30;;;5.50;;
77602;SDS011;66771;52.434;17.056;2023-04-01T20:24:52;6.50;;;5.50;;
77602;SDS011;66771;52.434;17.056;2023-04-01T20:28:10;7.20;;;6.00;;
77602;SDS011;66771;52.434;17.056;2023-04-01T20:39:04;9.90;;;5.90;;
77602;SDS011;66771;52.434;17.056;2023-04-01T20:44:37;6.00;;;5.40;;
77602;SDS011;66771;52.434;17.056;2023-04-01T21:00:41;8.20;;;6.20;;
77602;SDS011;66771;52.434;17.056;2023-04-01T21:06:21;6.10;;;4.90;;
77602;SDS011;66771;52.434;17.056;2023-04-01T21:09:12;6.10;;;5.10;;
77602;SDS011;66771;52.434;17.056;2023-04-01T21:12:19;9.40;;;5.60;;
77602;SDS011;66771;52.434;17.056;2023-04-01T21:14:56;8.10;;;5.80;;
77602;SDS011;66771;52.434;17.056;2023-04-01T21:39:58;10.20;;;8.30;;
77602;SDS011;66771;52.434;17.056;2023-04-01T22:04:29;12.90;;;8.80;;
77602;SDS011;66771;52.434;17.056;2023-04-01T22:09:40;13.60;;;9.20;;
77602;SDS011;66771;52.434;17.056;2023-04-01T22:12:17;12.80;;;8.70;;
77602;SDS011;66771;52.434;17.056;2023-04-01T22:18:08;12.90;;;8.90;;
77602;SDS011;66771;52.434;17.056;2023-04-01T22:20:48;11.00;;;7.90;;
77602;SDS011;66771;52.434;17.056;2023-04-01T22:23:29;11.90;;;8.00;;
77602;SDS011;66771;52.434;17.056;2023-04-01T22:29:03;9.90;;;7.50;;
77602;SDS011;66771;52.434;17.056;2023-04-01T22:31:56;10.10;;;7.10;;
77602;SDS011;66771;52.434;17.056;2023-04-01T22:42:46;10.60;;;6.90;;
77602;SDS011;66771;52.434;17.056;2023-04-01T22:56:18;8.60;;;6.40;;
77602;SDS011;66771;52.434;17.056;2023-04-01T23:01:44;8.60;;;6.20;;
77602;SDS011;66771;52.434;17.056;2023-04-01T23:04:17;9.70;;;5.70;;
77602;SDS011;66771;52.434;17.056;2023-04-01T23:06:52;8.00;;;5.60;;
77602;SDS011;66771;52.434;17.056;2023-04-01T23:09:30;9.90;;;5.70;;
77602;SDS011;66771;52.434;17.056;2023-04-01T23:12:04;12.90;;;5.90;;
77602;SDS011;66771;52.434;17.056;2023-04-01T23:14:39;10.10;;;6.60;;
77602;SDS011;66771;52.434;17.056;2023-04-01T23:20:22;9.80;;;6.50;;
77602;SDS011;66771;52.434;17.056;2023-04-01T23:22:44;10.30;;;5.70;;
77602;SDS011;66771;52.434;17.056;2023-04-01T23:28:36;8.70;;;5.40;;
77602;SDS011;66771;52.434;17.056;2023-04-01T23:36:41;8.30;;;6.50;;
77602;SDS011;66771;52.434;17.056;2023-04-01T23:39:20;7.20;;;5.30;;
77602;SDS011;66771;52.434;17.056;2023-04-01T23:41:51;10.70;;;7.60;;
77602;SDS011;66771;52.434;17.056;2023-04-01T23:44:19;7.60;;;6.20;;
77602;SDS011;66771;52.434;17.056;2023-04-01T23:46:47;7.00;;;4.90;;
77602;SDS011;66771;52.434;17.056;2023-04-01T23:49:18;10.30;;;6.20;;
77602;SDS011;66771;52.434;17.056;2023-04-01T23:51:55;7.80;;;5.30;;
77602;SDS011;66771;52.434;17.056;2023-04-01T23:54:28;8.40;;;6.00;;
77602;SDS011;66771;52.434;17.056;2023-04-01T23:56:58;9.00;;;5.60;;
77602;SDS011;66771;52.434;17.056;2023-04-01T23:59:29;13.50;;;5.60;;
